Time;durP1;ratioP1;P1;durP2;ratioP2;P2;SDS_P1;SDS_P2;PMS_P1;PMS_P2;Temp;Humidity;BMP_temperature;BMP_pressure;BME280_temperature;BME280_humidity;BME280_pressure;Samples;Min_cycle;Max_cycle;Signal;HPM_P1;HPM_P2
2021/10/04 00:00:17;;;;;;;5.93;1.98;;;12.30;85.60;;;;;;4987390;28;20030;-72
2021/10/04 00:02:43;;;;;;;4.47;1.98;;;12.20;85.90;;;;;;4982089;28;20049;-74
2021/10/04 00:05:10;;;;;;;7.03;2.10;;;12.10;85.90;;;;;;4987359;28;20034;-73
2021/10/04 00:07:35;;;;;;;5.60;2.10;;;12.10;86.00;;;;;;4986155;28;20037;-73
2021/10/04 00:10:03;;;;;;;6.28;1.80;;;12.10;86.00;;;;;;4984694;28;20064;-74
2021/10/04 00:12:29;;;;;;;5.85;2.00;;;12.10;86.10;;;;;;4984953;28;20088;-75
2021/10/04 00:14:54;;;;;;;5.07;2.22;;;12.10;86.20;;;;;;4985368;28;20042;-72
2021/10/04 00:17:20;;;;;;;7.85;2.17;;;12.10;86.20;;;;;;4982636;28;20030;-75
2021/10/04 00:19:46;;;;;;;4.60;2.25;;;12.10;86.10;;;;;;4984307;28;20117;-72
2021/10/04 00:22:11;;;;;;;5.90;2.13;;;12.10;86.20;;;;;;4986663;28;20035;-71
2021/10/04 00:24:37;;;;;;;6.70;2.30;;;12.10;86.30;;;;;;4983088;28;20049;-72
2021/10/04 00:27:03;;;;;;;4.75;2.28;;;12.00;86.40;;;;;;4983185;28;20045;-73
2021/10/04 00:29:29;;;;;;;8.30;2.40;;;12.10;86.30;;;;;;4984330;28;20486;-71
2021/10/04 00:31:54;;;;;;;7.78;2.85;;;12.00;86.40;;;;;;4984616;28;20066;-71
2021/10/04 00:34:20;;;;;;;5.20;1.88;;;12.00;86.60;;;;;;4978508;28;20479;-72
2021/10/04 00:36:46;;;;;;;7.10;2.38;;;12.00;86.60;;;;;;4984366;28;20059;-74
2021/10/04 00:39:11;;;;;;;5.95;2.33;;;12.00;86.50;;;;;;4982050;28;20034;-71
2021/10/04 00:41:37;;;;;;;8.30;2.90;;;11.90;86.80;;;;;;4984482;28;20077;-71
2021/10/04 00:44:03;;;;;;;8.27;2.58;;;11.90;86.80;;;;;;4983261;28;20126;-71
2021/10/04 00:46:30;;;;;;;6.05;2.60;;;11.80;86.90;;;;;;4984190;28;20113;-73
2021/10/04 00:48:56;;;;;;;8.63;2.60;;;11.80;86.90;;;;;;4981005;28;20027;-72
2021/10/04 00:51:22;;;;;;;6.25;2.72;;;11.80;86.90;;;;;;4982464;28;20045;-74
2021/10/04 00:53:49;;;;;;;6.15;2.70;;;11.80;86.90;;;;;;4984401;28;20501;-71
2021/10/04 00:56:16;;;;;;;6.55;2.63;;;11.80;86.90;;;;;;4981076;28;20042;-71
2021/10/04 00:58:42;;;;;;;7.57;3.20;;;11.70;87.00;;;;;;4987323;28;20042;-71
2021/10/04 01:01:09;;;;;;;9.05;3.20;;;11.70;87.00;;;;;;5000158;28;20038;-75
2021/10/04 01:03:35;;;;;;;7.30;2.83;;;11.70;87.10;;;;;;4999475;28;20085;-72
2021/10/04 01:06:01;;;;;;;5.20;2.60;;;11.60;87.20;;;;;;5003542;28;20129;-73
2021/10/04 01:08:26;;;;;;;5.93;2.30;;;11.60;87.30;;;;;;5004131;28;20120;-77
2021/10/04 01:10:52;;;;;;;6.65;2.65;;;11.60;87.30;;;;;;4999433;28;20045;-72
2021/10/04 01:13:19;;;;;;;6.80;2.83;;;11.60;87.30;;;;;;5002700;28;20073;-71
2021/10/04 01:15:44;;;;;;;13.38;2.70;;;11.50;87.30;;;;;;5003443;28;20037;-71
2021/10/04 01:18:10;;;;;;;12.07;3.10;;;11.50;87.30;;;;;;5004772;28;20037;-72
2021/10/04 01:20:36;;;;;;;6.20;2.63;;;11.50;87.20;;;;;;5005669;28;20117;-72
2021/10/04 01:23:02;;;;;;;7.10;2.45;;;11.50;87.20;;;;;;5002130;28;20072;-71
2021/10/04 01:25:28;;;;;;;7.45;2.67;;;11.50;87.10;;;;;;5005243;28;20068;-71
2021/10/04 01:27:54;;;;;;;7.82;2.65;;;11.50;87.10;;;;;;5004637;28;20046;-71
2021/10/04 01:30:25;;;;;;;9.13;2.90;;;11.50;87.00;;;;;;5004559;28;20069;-73
2021/10/04 01:32:52;;;;;;;9.60;2.80;;;11.40;87.00;;;;;;5002613;28;20111;-71
2021/10/04 01:35:18;;;;;;;6.45;2.65;;;11.40;87.20;;;;;;5003657;28;20471;-72
2021/10/04 01:37:44;;;;;;;7.35;2.90;;;11.40;87.10;;;;;;5001963;28;20038;-71
2021/10/04 01:40:12;;;;;;;6.90;3.00;;;11.40;87.20;;;;;;5001676;28;20040;-71
2021/10/04 01:42:39;;;;;;;9.90;2.75;;;11.40;87.20;;;;;;5000103;28;20049;-71
2021/10/04 01:45:07;;;;;;;8.35;2.90;;;11.40;87.10;;;;;;5005295;28;20026;-71
2021/10/04 01:47:33;;;;;;;6.88;2.70;;;11.40;87.20;;;;;;5002620;28;20037;-71
2021/10/04 01:49:58;;;;;;;7.38;2.45;;;11.40;87.20;;;;;;5003162;28;20034;-72
2021/10/04 01:52:24;;;;;;;7.10;3.25;;;11.40;87.30;;;;;;4999466;28;20056;-72
2021/10/04 01:54:50;;;;;;;6.70;2.40;;;11.40;87.20;;;;;;4999994;28;20073;-71
2021/10/04 01:57:16;;;;;;;6.75;2.55;;;11.40;87.20;;;;;;5003314;28;20030;-70
2021/10/04 01:59:42;;;;;;;9.50;2.80;;;11.40;87.20;;;;;;5006586;28;20133;-71
2021/10/04 02:02:07;;;;;;;8.95;2.63;;;11.40;87.30;;;;;;5000261;28;20042;-71
2021/10/04 02:04:33;;;;;;;6.10;2.33;;;11.30;87.20;;;;;;5000860;28;20030;-71
2021/10/04 02:06:59;;;;;;;8.63;2.80;;;11.30;87.40;;;;;;5001174;28;20034;-72
2021/10/04 02:09:25;;;;;;;5.60;2.22;;;11.30;87.50;;;;;;4998395;28;20381;-72
2021/10/04 02:11:51;;;;;;;8.25;2.72;;;11.30;87.40;;;;;;5004444;28;20046;-71
2021/10/04 02:14:17;;;;;;;6.85;2.53;;;11.30;87.50;;;;;;5004101;28;20045;-72
2021/10/04 02:16:44;;;;;;;6.22;2.60;;;11.20;87.60;;;;;;5005137;28;20037;-72
2021/10/04 02:19:11;;;;;;;8.52;2.58;;;11.20;87.60;;;;;;5003271;28;20068;-72
2021/10/04 02:21:36;;;;;;;6.68;2.50;;;11.20;87.50;;;;;;5006039;28;20549;-76
2021/10/04 02:24:03;;;;;;;9.18;2.90;;;11.20;87.50;;;;;;5005741;28;20042;-72
2021/10/04 02:26:28;;;;;;;4.63;2.42;;;11.10;87.70;;;;;;5006593;28;20135;-75
2021/10/04 02:28:54;;;;;;;7.28;2.95;;;11.10;87.50;;;;;;5007089;28;20034;-72
2021/10/04 02:31:20;;;;;;;7.25;2.78;;;11.10;87.50;;;;;;5006948;28;20030;-71
2021/10/04 02:33:46;;;;;;;8.90;2.58;;;11.10;87.50;;;;;;5008363;28;20458;-71
2021/10/04 02:36:11;;;;;;;7.03;2.58;;;11.20;87.50;;;;;;5006403;28;20445;-73
2021/10/04 02:38:37;;;;;;;7.82;2.28;;;11.10;87.40;;;;;;5009487;28;20042;-73
2021/10/04 02:41:03;;;;;;;6.28;2.30;;;11.10;87.50;;;;;;5009587;28;20394;-72
2021/10/04 02:43:29;;;;;;;6.35;2.58;;;11.10;87.60;;;;;;5003838;28;20038;-72
2021/10/04 02:45:55;;;;;;;6.03;2.35;;;11.00;87.50;;;;;;5005723;28;20482;-72
2021/10/04 02:48:21;;;;;;;6.95;2.20;;;11.10;87.50;;;;;;5005837;28;20034;-72
2021/10/04 02:50:47;;;;;;;5.50;2.10;;;11.10;87.50;;;;;;5002456;28;20033;-73
2021/10/04 02:53:13;;;;;;;5.35;2.38;;;11.00;87.50;;;;;;5006260;28;20363;-72
2021/10/04 02:55:39;;;;;;;7.55;2.58;;;11.00;87.50;;;;;;5007901;28;20485;-75
2021/10/04 02:58:05;;;;;;;8.18;2.70;;;11.00;87.50;;;;;;5006044;28;20041;-71
2021/10/04 03:00:34;;;;;;;6.25;2.50;;;11.00;87.50;;;;;;4998933;28;20038;-72
2021/10/04 03:03:00;;;;;;;8.25;2.55;;;10.90;87.50;;;;;;5001164;28;20132;-72
2021/10/04 03:05:26;;;;;;;7.55;2.47;;;10.90;87.60;;;;;;5004397;28;20130;-74
2021/10/04 03:07:51;;;;;;;7.82;2.20;;;10.90;87.60;;;;;;5000916;28;20125;-72
2021/10/04 03:10:17;;;;;;;5.40;1.92;;;10.90;87.70;;;;;;5002930;28;20038;-71
2021/10/04 03:12:43;;;;;;;5.40;2.22;;;10.80;87.60;;;;;;5003113;28;20081;-72
2021/10/04 03:15:09;;;;;;;7.43;2.40;;;10.80;87.80;;;;;;4998419;28;20117;-75
2021/10/04 03:17:35;;;;;;;10.82;2.40;;;10.80;87.90;;;;;;5003195;28;20026;-73
2021/10/04 03:20:01;;;;;;;7.88;2.90;;;10.70;87.80;;;;;;5007086;28;20739;-71
2021/10/04 03:22:26;;;;;;;10.07;2.55;;;10.70;87.90;;;;;;5006681;28;20050;-71
2021/10/04 03:24:52;;;;;;;8.18;2.60;;;10.60;88.00;;;;;;5009809;28;20034;-74
2021/10/04 03:27:18;;;;;;;8.95;2.60;;;10.70;88.20;;;;;;5007816;28;20096;-72
2021/10/04 03:29:44;;;;;;;11.07;2.65;;;10.60;88.20;;;;;;5003318;28;20037;-73
2021/10/04 03:32:09;;;;;;;5.97;2.50;;;10.60;88.30;;;;;;5001260;28;20438;-72
2021/10/04 03:34:35;;;;;;;7.55;2.53;;;10.60;88.30;;;;;;5009606;28;20385;-71
2021/10/04 03:37:01;;;;;;;7.13;2.50;;;10.60;88.30;;;;;;5001386;28;20046;-71
2021/10/04 03:39:27;;;;;;;16.75;2.72;;;10.60;88.40;;;;;;5006548;28;20033;-72
2021/10/04 03:41:53;;;;;;;6.85;2.53;;;10.60;88.50;;;;;;5005483;28;20042;-72
2021/10/04 03:44:18;;;;;;;7.10;2.60;;;10.60;88.40;;;;;;5005722;28;20057;-77
2021/10/04 03:46:44;;;;;;;8.35;2.72;;;10.60;88.30;;;;;;5010659;28;20034;-75
2021/10/04 03:49:10;;;;;;;11.27;2.85;;;10.50;88.40;;;;;;5007544;28;20129;-72
2021/10/04 03:51:36;;;;;;;7.95;2.60;;;10.50;88.40;;;;;;4986024;28;20390;-71
2021/10/04 03:54:02;;;;;;;8.40;3.00;;;10.50;88.50;;;;;;4984024;28;20426;-79
2021/10/04 03:56:28;;;;;;;6.43;2.40;;;10.50;88.50;;;;;;4983485;28;20480;-72
2021/10/04 03:58:53;;;;;;;9.93;3.08;;;10.40;88.60;;;;;;4985898;28;20035;-72
2021/10/04 04:01:19;;;;;;;6.20;2.55;;;10.50;88.60;;;;;;4995617;28;20370;-72
2021/10/04 04:03:47;;;;;;;13.90;3.05;;;10.50;88.50;;;;;;5002909;28;20386;-73
2021/10/04 04:06:13;;;;;;;5.97;2.63;;;10.50;88.40;;;;;;4981470;28;20474;-72
2021/10/04 04:08:39;;;;;;;5.25;2.40;;;10.40;88.50;;;;;;4988952;28;20137;-72
2021/10/04 04:11:04;;;;;;;7.10;2.67;;;10.40;88.40;;;;;;4998855;28;20463;-72
2021/10/04 04:13:30;;;;;;;8.77;2.80;;;10.40;88.50;;;;;;4988324;28;20050;-71
2021/10/04 04:15:56;;;;;;;9.95;2.63;;;10.40;88.50;;;;;;4980727;28;20695;-72
2021/10/04 04:18:22;;;;;;;5.70;2.40;;;10.40;88.50;;;;;;4982592;28;20059;-71
2021/10/04 04:20:47;;;;;;;9.65;2.97;;;10.40;88.50;;;;;;4983636;28;20043;-71
2021/10/04 04:23:14;;;;;;;8.82;2.60;;;10.40;88.60;;;;;;5000837;28;20053;-72
2021/10/04 04:25:39;;;;;;;6.45;2.55;;;10.40;88.60;;;;;;5007681;28;20504;-71
2021/10/04 04:28:05;;;;;;;8.23;2.78;;;10.40;88.60;;;;;;5001091;28;20086;-74
2021/10/04 04:30:32;;;;;;;9.75;2.72;;;10.30;88.70;;;;;;4994707;28;20061;-71
2021/10/04 04:32:58;;;;;;;9.98;2.90;;;10.30;88.70;;;;;;5003401;28;20038;-71
2021/10/04 04:35:24;;;;;;;9.35;2.80;;;10.30;88.80;;;;;;4999390;28;20921;-71
2021/10/04 04:37:49;;;;;;;8.07;2.75;;;10.30;88.70;;;;;;5000675;28;20085;-72
2021/10/04 04:40:17;;;;;;;10.05;2.75;;;10.30;88.80;;;;;;4999650;28;20042;-71
2021/10/04 04:42:44;;;;;;;7.68;2.70;;;10.30;88.60;;;;;;5003488;28;20049;-71
2021/10/04 04:45:12;;;;;;;9.68;2.80;;;10.30;88.70;;;;;;5001065;28;20080;-71
2021/10/04 04:47:38;;;;;;;10.18;2.78;;;10.30;88.70;;;;;;5008629;28;20061;-71
2021/10/04 04:50:06;;;;;;;10.77;2.63;;;10.30;88.80;;;;;;5002562;28;20552;-72
2021/10/04 04:52:32;;;;;;;8.98;2.60;;;10.30;88.60;;;;;;5001995;28;20080;-71
2021/10/04 04:54:58;;;;;;;10.13;2.65;;;10.30;88.60;;;;;;5004911;28;20041;-75
2021/10/04 04:57:24;;;;;;;9.45;2.45;;;10.20;88.70;;;;;;5004551;28;20037;-71
2021/10/04 04:59:51;;;;;;;10.15;2.40;;;10.20;88.70;;;;;;4999503;28;20076;-71
2021/10/04 05:02:17;;;;;;;6.72;2.55;;;10.20;88.60;;;;;;5001462;28;20465;-72
2021/10/04 05:04:43;;;;;;;7.65;2.50;;;10.20;88.80;;;;;;4996491;28;20541;-72
2021/10/04 05:07:09;;;;;;;6.85;2.22;;;10.20;88.70;;;;;;5003011;28;20125;-73
2021/10/04 05:09:35;;;;;;;10.23;2.30;;;10.20;88.80;;;;;;5002583;28;20401;-71
2021/10/04 05:12:00;;;;;;;8.27;1.83;;;10.20;88.80;;;;;;5000875;28;20121;-76
2021/10/04 05:14:26;;;;;;;9.43;2.20;;;10.20;88.80;;;;;;4998608;28;20069;-71
2021/10/04 05:16:52;;;;;;;8.20;2.25;;;10.20;88.80;;;;;;4998108;28;20065;-72
2021/10/04 05:19:18;;;;;;;8.82;2.45;;;10.20;89.00;;;;;;4996493;28;20121;-70
2021/10/04 05:21:44;;;;;;;9.70;2.50;;;10.20;88.80;;;;;;5001943;28;20068;-72
2021/10/04 05:24:09;;;;;;;8.77;2.42;;;10.10;88.80;;;;;;4996838;28;20539;-72
2021/10/04 05:26:35;;;;;;;20.67;4.60;;;10.20;88.90;;;;;;5003570;28;20076;-71
2021/10/04 05:29:01;;;;;;;22.02;4.47;;;10.20;88.90;;;;;;4999301;28;20069;-72
2021/10/04 05:31:26;;;;;;;17.95;3.28;;;10.20;88.90;;;;;;5000910;28;20541;-74
2021/10/04 05:33:52;;;;;;;11.07;2.50;;;10.20;88.90;;;;;;5005859;28;20034;-72
2021/10/04 05:36:18;;;;;;;9.43;2.92;;;10.10;89.00;;;;;;5000629;28;20038;-71
2021/10/04 05:38:46;;;;;;;8.57;2.40;;;10.10;89.20;;;;;;5005674;28;20442;-70
2021/10/04 05:41:12;;;;;;;7.40;2.70;;;10.10;89.30;;;;;;4999027;28;20042;-70
2021/10/04 05:43:38;;;;;;;10.25;2.85;;;10.10;89.40;;;;;;4986735;28;20037;-76
2021/10/04 05:46:04;;;;;;;10.35;2.88;;;10.10;89.40;;;;;;4985855;28;20030;-74
2021/10/04 05:48:31;;;;;;;5.72;2.20;;;10.10;89.40;;;;;;4989737;28;20793;-76
2021/10/04 05:50:58;;;;;;;8.48;2.90;;;10.10;89.30;;;;;;5002245;28;20496;-72
2021/10/04 05:53:24;;;;;;;7.25;2.50;;;10.10;89.30;;;;;;5003549;28;20081;-71
2021/10/04 05:55:50;;;;;;;6.15;2.55;;;10.10;89.20;;;;;;5008786;28;20096;-72
2021/10/04 05:58:16;;;;;;;9.95;2.42;;;10.10;89.30;;;;;;5000273;28;20539;-72
2021/10/04 06:00:43;;;;;;;9.48;2.88;;;10.10;89.30;;;;;;5004578;28;20042;-71
2021/10/04 06:03:08;;;;;;;8.90;3.13;;;10.10;89.30;;;;;;5003221;28;20531;-70
2021/10/04 06:05:35;;;;;;;11.50;3.22;;;10.10;89.30;;;;;;5006641;28;20113;-71
2021/10/04 06:08:02;;;;;;;12.10;3.10;;;10.10;89.30;;;;;;5007170;28;20474;-71
2021/10/04 06:10:29;;;;;;;11.15;3.08;;;10.10;89.30;;;;;;5008530;28;20038;-71
2021/10/04 06:12:54;;;;;;;10.82;3.17;;;10.10;89.20;;;;;;5010761;28;20486;-71
2021/10/04 06:15:21;;;;;;;9.52;3.33;;;10.10;89.30;;;;;;5009581;28;20057;-71
2021/10/04 06:17:47;;;;;;;9.48;3.17;;;10.10;89.40;;;;;;5010180;28;20042;-71
2021/10/04 06:20:13;;;;;;;8.18;3.00;;;10.10;89.40;;;;;;5002042;28;20041;-71
2021/10/04 06:22:40;;;;;;;11.30;3.40;;;10.20;89.30;;;;;;5009637;28;20041;-70
2021/10/04 06:25:08;;;;;;;8.45;3.00;;;10.20;89.20;;;;;;5009171;28;20046;-72
2021/10/04 06:27:34;;;;;;;7.32;2.78;;;10.30;89.30;;;;;;5008167;28;20132;-71
2021/10/04 06:30:00;;;;;;;10.13;3.17;;;10.40;89.10;;;;;;5008188;28;20037;-71
2021/10/04 06:32:27;;;;;;;10.88;3.30;;;10.40;88.90;;;;;;5007916;28;20054;-69
2021/10/04 06:34:53;;;;;;;21.63;3.72;;;10.50;88.90;;;;;;4979641;28;20038;-71
2021/10/04 06:37:19;;;;;;;12.35;3.30;;;10.50;88.80;;;;;;4989750;28;20046;-69
2021/10/04 06:39:45;;;;;;;11.00;3.30;;;10.50;88.70;;;;;;4984258;28;20035;-72
2021/10/04 06:42:10;;;;;;;9.35;2.85;;;10.60;88.50;;;;;;4984217;28;20045;-71
2021/10/04 06:44:37;;;;;;;13.85;3.95;;;10.60;88.20;;;;;;4987166;28;20478;-69
2021/10/04 06:47:03;;;;;;;12.45;3.22;;;10.70;88.10;;;;;;4985709;28;20050;-71
2021/10/04 06:49:29;;;;;;;14.45;3.75;;;10.70;87.90;;;;;;4988080;28;20029;-70
2021/10/04 06:51:54;;;;;;;10.05;2.40;;;10.80;87.90;;;;;;4983661;28;20042;-71
2021/10/04 06:54:20;;;;;;;9.63;2.75;;;10.80;87.90;;;;;;4987589;28;20105;-69
2021/10/04 06:56:46;;;;;;;14.45;3.03;;;10.80;87.80;;;;;;4992280;28;20053;-70
2021/10/04 06:59:12;;;;;;;11.20;3.03;;;10.80;87.80;;;;;;4988090;28;20039;-71
2021/10/04 07:01:39;;;;;;;12.05;2.80;;;10.80;87.80;;;;;;4982225;28;20529;-70
2021/10/04 07:04:06;;;;;;;36.53;6.95;;;10.90;87.80;;;;;;4982454;28;20038;-69
2021/10/04 07:06:32;;;;;;;25.73;4.50;;;10.90;87.80;;;;;;4988703;28;20126;-69
2021/10/04 07:08:57;;;;;;;36.47;6.97;;;11.00;87.70;;;;;;4981233;28;20158;-69
2021/10/04 07:11:23;;;;;;;16.70;3.72;;;11.10;87.60;;;;;;4978546;28;20043;-69
2021/10/04 07:13:49;;;;;;;13.85;3.65;;;11.10;87.50;;;;;;4981481;28;20474;-69
2021/10/04 07:16:17;;;;;;;23.35;4.03;;;11.10;87.50;;;;;;4987840;28;20706;-71
2021/10/04 07:18:43;;;;;;;12.45;3.17;;;11.20;87.20;;;;;;5004428;28;20034;-69
2021/10/04 07:21:10;;;;;;;13.32;3.17;;;11.20;87.10;;;;;;5005622;28;20026;-69
2021/10/04 07:23:35;;;;;;;20.42;4.00;;;11.30;87.00;;;;;;5007977;28;20050;-70
2021/10/04 07:26:01;;;;;;;16.08;3.13;;;11.40;86.70;;;;;;5002281;28;20064;-68
2021/10/04 07:28:27;;;;;;;10.23;2.78;;;11.40;86.70;;;;;;5004588;28;20030;-69
2021/10/04 07:30:53;;;;;;;10.73;2.92;;;11.50;86.70;;;;;;5007406;28;20448;-69
2021/10/04 07:33:19;;;;;;;21.98;3.95;;;11.60;86.60;;;;;;5004790;28;20072;-69
2021/10/04 07:35:44;;;;;;;35.67;5.28;;;11.60;86.30;;;;;;5009087;28;20413;-71
2021/10/04 07:38:10;;;;;;;20.65;3.83;;;11.70;86.10;;;;;;5004294;28;20436;-69
2021/10/04 07:40:36;;;;;;;21.67;4.45;;;11.80;85.80;;;;;;5008684;28;20060;-69
2021/10/04 07:43:02;;;;;;;27.15;4.28;;;11.90;85.70;;;;;;5006264;28;20046;-70
2021/10/04 07:45:31;;;;;;;20.80;4.05;;;12.00;85.40;;;;;;5015136;28;20041;-69
2021/10/04 07:47:56;;;;;;;19.13;3.55;;;12.10;85.20;;;;;;5005640;28;20034;-70
2021/10/04 07:50:22;;;;;;;14.35;2.70;;;12.20;84.80;;;;;;5005688;28;20037;-69
2021/10/04 07:52:48;;;;;;;11.05;3.25;;;12.40;84.30;;;;;;5009228;28;20069;-68
2021/10/04 07:55:14;;;;;;;18.88;3.15;;;12.50;83.70;;;;;;5010322;28;20054;-71
2021/10/04 07:57:40;;;;;;;12.20;2.65;;;12.60;83.40;;;;;;5007090;28;20079;-69
2021/10/04 08:00:07;;;;;;;11.68;2.63;;;12.70;83.20;;;;;;5004415;28;20034;-69
2021/10/04 08:02:35;;;;;;;12.07;2.97;;;12.90;82.90;;;;;;5001686;28;20034;-68
2021/10/04 08:05:02;;;;;;;12.05;2.50;;;13.00;82.30;;;;;;5007046;28;20069;-69
2021/10/04 08:07:27;;;;;;;12.88;2.95;;;13.10;81.90;;;;;;5010279;28;20479;-69
2021/10/04 08:09:53;;;;;;;10.50;2.70;;;13.40;81.30;;;;;;5004094;28;20034;-71
2021/10/04 08:12:23;;;;;;;15.70;2.97;;;13.50;81.00;;;;;;5004810;28;20040;-70
2021/10/04 08:14:49;;;;;;;8.93;2.72;;;13.60;80.40;;;;;;4995856;28;20054;-69
2021/10/04 08:17:15;;;;;;;26.02;5.97;;;13.60;80.50;;;;;;5006407;28;20037;-69
2021/10/04 08:19:40;;;;;;;14.05;2.70;;;13.90;79.70;;;;;;5007323;28;20045;-70
2021/10/04 08:22:07;;;;;;;8.98;2.67;;;14.00;79.50;;;;;;5007439;28;20397;-69
2021/10/04 08:24:33;;;;;;;9.13;2.67;;;14.10;79.20;;;;;;5006480;28;20076;-69
2021/10/04 08:26:58;;;;;;;10.30;2.58;;;14.40;78.60;;;;;;5008321;28;20060;-72
2021/10/04 08:29:24;;;;;;;9.18;2.15;;;14.50;77.80;;;;;;5005971;28;20037;-69
2021/10/04 08:31:50;;;;;;;10.45;2.55;;;14.60;78.00;;;;;;4999868;28;20057;-69
2021/10/04 08:34:15;;;;;;;10.45;3.00;;;14.60;77.60;;;;;;5009216;28;20038;-69
2021/10/04 08:36:41;;;;;;;12.50;2.65;;;14.60;77.80;;;;;;5005239;28;20033;-70
2021/10/04 08:39:07;;;;;;;10.13;2.20;;;14.80;77.50;;;;;;5002096;28;20062;-70
2021/10/04 08:41:34;;;;;;;14.85;2.63;;;14.90;77.00;;;;;;5005368;28;20045;-69
2021/10/04 08:44:05;;;;;;;35.47;7.25;;;15.00;76.60;;;;;;4999101;28;20125;-69
2021/10/04 08:46:36;;;;;;;18.33;4.03;;;15.00;76.60;;;;;;5006216;28;20030;-68
2021/10/04 08:49:01;;;;;;;10.60;2.55;;;15.10;76.50;;;;;;5004474;28;20519;-72
2021/10/04 08:51:27;;;;;;;15.13;2.30;;;15.00;76.30;;;;;;5001821;28;20055;-69
2021/10/04 08:53:53;;;;;;;12.70;2.72;;;15.20;76.40;;;;;;5005981;28;20524;-69
2021/10/04 08:56:19;;;;;;;12.05;2.67;;;15.10;76.30;;;;;;5005329;28;20034;-70
2021/10/04 08:58:45;;;;;;;12.02;2.53;;;15.30;76.30;;;;;;5005904;28;20076;-68
2021/10/04 09:01:10;;;;;;;11.73;2.60;;;15.40;75.60;;;;;;5004503;28;20034;-69
2021/10/04 09:03:45;;;;;;;10.80;2.42;;;15.50;75.40;;;;;;5007686;28;20049;-69
2021/10/04 09:06:29;;;;;;;11.07;2.25;;;15.60;75.60;;;;;;5005620;28;20038;-68
2021/10/04 09:09:04;;;;;;;8.80;2.55;;;15.80;74.50;;;;;;5010229;28;20037;-69
2021/10/04 09:11:33;;;;;;;;;;;15.90;75.00;;;;;;5001294;28;20110;-68
2021/10/04 09:14:19;;;;;;;12.52;2.35;;;16.10;74.40;;;;;;5010839;28;19951;-70
2021/10/04 09:17:06;;;;;;;10.80;2.50;;;16.10;73.50;;;;;;5003794;28;20034;-69
2021/10/04 09:19:40;;;;;;;11.13;2.08;;;16.20;74.20;;;;;;5004136;28;20507;-68
2021/10/04 09:22:13;;;;;;;9.75;2.53;;;16.30;73.60;;;;;;5004342;28;20045;-69
2021/10/04 09:24:43;;;;;;;11.50;2.28;;;16.10;73.20;;;;;;5007538;28;20125;-69
2021/10/04 09:27:35;;;;;;;13.35;2.80;;;16.10;73.60;;;;;;5003011;28;20049;-70
2021/10/04 09:30:10;;;;;;;10.88;1.90;;;16.20;73.80;;;;;;5005835;28;20034;-71
2021/10/04 09:32:36;;;;;;;11.90;2.58;;;16.30;73.60;;;;;;5005960;28;20060;-69
2021/10/04 09:35:28;;;;;;;12.85;2.10;;;16.40;73.60;;;;;;5007783;28;20458;-71
2021/10/04 09:37:59;;;;;;;9.23;2.17;;;16.50;73.10;;;;;;5002885;28;20084;-70
2021/10/04 09:40:28;;;;;;;13.70;2.35;;;16.70;72.20;;;;;;4999153;28;20030;-76
2021/10/04 09:42:54;;;;;;;10.55;2.33;;;16.90;72.20;;;;;;5002579;28;20038;-71
2021/10/04 09:45:20;;;;;;;11.85;2.45;;;17.00;71.10;;;;;;5001521;28;20044;-71
2021/10/04 09:47:46;;;;;;;14.98;1.98;;;17.00;71.20;;;;;;5004942;28;20034;-70
2021/10/04 09:50:14;;;;;;;9.85;2.75;;;17.00;70.90;;;;;;5003918;28;20366;-71
2021/10/04 09:52:43;;;;;;;7.65;1.80;;;16.80;70.80;;;;;;5007944;28;20088;-74
2021/10/04 09:55:32;;;;;;;10.18;2.10;;;16.90;71.90;;;;;;5009940;28;20038;-70
2021/10/04 09:58:02;;;;;;;9.77;2.20;;;17.00;71.60;;;;;;5001620;28;20037;-71
2021/10/04 10:00:35;;;;;;;17.33;3.20;;;17.10;71.10;;;;;;4999741;28;20042;-70
2021/10/04 10:03:01;;;;;;;10.80;2.30;;;17.10;71.40;;;;;;5003171;28;20045;-71
2021/10/04 10:05:30;;;;;;;12.20;2.10;;;17.20;70.60;;;;;;5006784;28;20045;-70
2021/10/04 10:07:56;;;;;;;11.13;2.53;;;17.50;70.70;;;;;;5000337;28;20072;-73
2021/10/04 10:10:23;;;;;;;8.90;2.00;;;17.60;69.80;;;;;;4998904;28;20077;-70
2021/10/04 10:12:49;;;;;;;8.18;1.90;;;17.70;70.50;;;;;;5004414;28;20038;-70
2021/10/04 10:15:33;;;;;;;8.00;2.10;;;17.70;69.30;;;;;;5003144;28;20034;-69
2021/10/04 10:18:19;;;;;;;11.02;2.00;;;17.60;69.10;;;;;;5001730;28;20129;-70
2021/10/04 10:20:51;;;;;;;10.23;2.05;;;17.80;69.10;;;;;;5000597;28;20490;-69
2021/10/04 10:23:37;;;;;;;11.00;2.30;;;17.80;69.20;;;;;;5003364;28;20030;-69
2021/10/04 10:26:24;;;;;;;10.05;2.00;;;17.80;68.10;;;;;;5001960;28;20088;-69
2021/10/04 10:29:12;;;;;;;8.38;2.00;;;17.80;68.10;;;;;;5009971;28;20045;-71
2021/10/04 10:31:50;;;;;;;8.45;2.38;;;18.10;68.20;;;;;;5006111;28;20033;-70
2021/10/04 10:34:32;;;;;;;8.80;1.77;;;18.20;67.60;;;;;;4998072;28;20470;-71
2021/10/04 10:37:24;;;;;;;10.90;2.35;;;18.10;66.50;;;;;;5006248;28;20038;-70
2021/10/04 10:39:55;;;;;;;11.70;2.10;;;18.10;67.40;;;;;;5013024;28;20045;-69
2021/10/04 10:42:34;;;;;;;9.00;1.90;;;17.90;67.80;;;;;;5008286;28;20113;-70
2021/10/04 10:45:04;;;;;;;10.50;1.90;;;17.80;68.20;;;;;;5011547;28;20477;-69
2021/10/04 10:47:51;;;;;;;11.45;2.03;;;17.80;69.40;;;;;;5005541;28;20038;-70
2021/10/04 10:50:27;;;;;;;13.43;2.33;;;17.70;68.40;;;;;;5012481;28;20041;-70
2021/10/04 10:52:58;;;;;;;26.98;4.25;;;17.50;69.30;;;;;;5013824;28;20038;-70
2021/10/04 10:55:24;;;;;;;14.38;2.75;;;17.50;69.60;;;;;;5008944;28;20552;-69
2021/10/04 10:57:56;;;;;;;10.25;2.00;;;17.60;69.30;;;;;;5009402;28;20053;-70
2021/10/04 11:00:28;;;;;;;30.67;5.75;;;17.50;69.60;;;;;;5012926;28;20061;-70
2021/10/04 11:03:18;;;;;;;10.27;2.00;;;17.80;69.40;;;;;;5007901;28;20057;-71
2021/10/04 11:05:53;;;;;;;15.25;2.40;;;18.10;68.70;;;;;;5003505;28;20117;-70
2021/10/04 11:08:28;;;;;;;13.45;3.50;;;18.20;68.90;;;;;;5003258;28;20034;-70
2021/10/04 11:10:55;;;;;;;15.15;2.47;;;18.40;68.30;;;;;;5003647;28;20616;-72
2021/10/04 11:13:38;;;;;;;14.30;2.30;;;18.40;68.00;;;;;;5005503;28;20042;-70
2021/10/04 11:16:10;;;;;;;9.30;1.90;;;18.30;68.60;;;;;;5004107;28;20030;-70
2021/10/04 11:18:41;;;;;;;8.52;2.28;;;18.30;68.90;;;;;;5006559;28;20069;-69
2021/10/04 11:21:13;;;;;;;11.07;2.42;;;18.40;69.10;;;;;;5004986;28;20042;-70
2021/10/04 11:23:50;;;;;;;8.55;2.17;;;18.60;67.60;;;;;;5011973;28;20406;-70
2021/10/04 11:26:20;;;;;;;15.05;3.30;;;18.30;67.80;;;;;;5006973;28;20050;-70
2021/10/04 11:28:48;;;;;;;15.93;3.03;;;17.90;68.50;;;;;;5003051;28;20034;-69
2021/10/04 11:31:16;;;;;;;11.05;2.13;;;17.70;68.70;;;;;;5003985;28;20033;-69
2021/10/04 11:33:52;;;;;;;12.48;2.25;;;17.90;69.20;;;;;;5003271;28;20477;-74
2021/10/04 11:36:21;;;;;;;24.58;5.13;;;18.20;68.60;;;;;;5005466;28;20041;-70
2021/10/04 11:38:56;;;;;;;8.65;1.80;;;18.50;67.60;;;;;;5004319;28;20065;-70
2021/10/04 11:41:29;;;;;;;10.57;1.88;;;18.60;67.20;;;;;;5004432;28;21939;-70
2021/10/04 11:43:58;;;;;;;11.48;2.35;;;18.60;67.80;;;;;;5002070;28;20402;-70
2021/10/04 11:46:27;;;;;;;8.48;2.10;;;18.60;67.40;;;;;;5002539;28;20084;-71
2021/10/04 11:49:04;;;;;;;11.13;2.60;;;18.70;67.00;;;;;;5009215;28;20045;-70
2021/10/04 11:51:33;;;;;;;17.65;2.70;;;18.60;67.40;;;;;;5008292;28;20034;-70
2021/10/04 11:53:59;;;;;;;10.38;2.13;;;18.30;67.40;;;;;;5008336;28;20593;-70
2021/10/04 11:56:25;;;;;;;10.15;1.73;;;18.10;67.70;;;;;;5000505;28;20142;-70
2021/10/04 11:58:59;;;;;;;9.95;1.65;;;18.10;68.10;;;;;;5000587;28;20034;-70
2021/10/04 12:01:35;;;;;;;6.75;1.80;;;17.90;67.90;;;;;;4998051;28;20030;-71
2021/10/04 12:04:02;;;;;;;7.82;2.10;;;17.90;68.60;;;;;;5000144;28;20050;-72
2021/10/04 12:06:29;;;;;;;10.45;1.83;;;17.90;67.60;;;;;;5008849;28;20084;-70
2021/10/04 12:08:55;;;;;;;6.63;1.73;;;18.10;67.90;;;;;;5004386;28;20037;-70
2021/10/04 12:11:22;;;;;;;9.43;1.90;;;18.10;67.40;;;;;;5003415;28;20042;-70
2021/10/04 12:13:48;;;;;;;8.30;2.00;;;18.10;67.10;;;;;;5008716;28;20038;-70
2021/10/04 12:16:15;;;;;;;6.93;1.70;;;18.20;67.60;;;;;;5009365;28;20407;-69
2021/10/04 12:18:47;;;;;;;8.35;1.67;;;18.50;66.50;;;;;;5003716;28;20092;-70
2021/10/04 12:21:25;;;;;;;7.75;1.92;;;18.70;65.80;;;;;;5004774;28;20050;-71
2021/10/04 12:24:20;;;;;;;14.70;2.25;;;18.70;65.50;;;;;;5008724;28;20477;-70
2021/10/04 12:27:01;;;;;;;6.10;1.80;;;18.50;66.40;;;;;;5008052;28;20148;-71
2021/10/04 12:29:33;;;;;;;7.85;1.65;;;18.40;67.10;;;;;;5001339;28;20048;-72
2021/10/04 12:32:22;;;;;;;9.95;2.00;;;18.20;67.40;;;;;;5003361;28;20054;-71
2021/10/04 12:35:06;;;;;;;8.38;1.70;;;18.20;67.10;;;;;;5008045;28;20060;-69
2021/10/04 12:37:34;;;;;;;10.60;2.60;;;18.00;67.60;;;;;;5003091;28;20038;-73
2021/10/04 12:39:59;;;;;;;7.63;1.77;;;18.10;67.30;;;;;;4997822;28;20069;-74
2021/10/04 12:42:27;;;;;;;8.70;2.38;;;17.90;66.70;;;;;;5005124;28;20050;-75
2021/10/04 12:44:53;;;;;;;9.38;1.80;;;18.00;66.90;;;;;;5004280;28;20050;-73
2021/10/04 12:47:20;;;;;;;7.63;1.90;;;18.00;66.20;;;;;;5002907;28;20069;-70